createdAt,value
2023-05-11T00:00:02.365Z,503.00
2023-05-11T00:01:02.304Z,507.00
2023-05-11T00:02:02.339Z,503.00
2023-05-11T00:03:02.444Z,508.00
2023-05-11T00:04:02.436Z,507.00
2023-05-11T00:05:02.291Z,503.00
2023-05-11T00:06:02.310Z,505.00
2023-05-11T00:07:02.265Z,504.00
2023-05-11T00:08:02.282Z,509.00
2023-05-11T00:09:02.275Z,500.00
2023-05-11T00:10:02.300Z,507.00
2023-05-11T00:11:02.332Z,507.00
2023-05-11T00:12:02.301Z,509.00
2023-05-11T00:13:02.306Z,507.00
2023-05-11T00:14:02.321Z,503.00
2023-05-11T00:15:02.322Z,503.00
2023-05-11T00:16:02.418Z,503.00
2023-05-11T00:17:02.383Z,500.00
2023-05-11T00:18:02.417Z,507.00
2023-05-11T00:19:02.499Z,501.00
2023-05-11T00:20:02.428Z,507.00
2023-05-11T00:21:02.516Z,505.00
2023-05-11T00:22:02.534Z,503.00
2023-05-11T00:23:02.583Z,502.00
2023-05-11T00:24:02.571Z,508.00
2023-05-11T00:25:02.590Z,504.00
2023-05-11T00:26:02.641Z,503.00
2023-05-11T00:27:02.631Z,511.00
2023-05-11T00:28:02.671Z,507.00
2023-05-11T00:29:03.069Z,505.00
2023-05-11T00:30:02.724Z,506.00
2023-05-11T00:31:02.781Z,510.00
2023-05-11T00:32:02.756Z,504.00
2023-05-11T00:33:02.830Z,508.00
2023-05-11T00:34:02.817Z,504.00
2023-05-11T00:35:03.031Z,507.00
2023-05-11T00:36:02.886Z,509.00
2023-05-11T00:37:02.870Z,505.00
2023-05-11T00:38:02.939Z,506.00
2023-05-11T00:39:02.924Z,507.00
2023-05-11T00:40:03.000Z,503.00
2023-05-11T00:41:03.025Z,508.00
2023-05-11T00:42:03.008Z,502.00
2023-05-11T00:43:03.062Z,507.00
2023-05-11T00:44:03.076Z,508.00
2023-05-11T00:45:03.143Z,507.00
2023-05-11T00:46:03.165Z,508.00
2023-05-11T00:47:03.250Z,505.00
2023-05-11T00:48:03.234Z,505.00
2023-05-11T00:49:03.261Z,504.00
2023-05-11T00:50:03.273Z,500.00
2023-05-11T00:51:03.304Z,504.00
2023-05-11T00:52:03.400Z,505.00
2023-05-11T00:53:03.350Z,505.00
2023-05-11T00:54:03.398Z,508.00
2023-05-11T00:55:03.438Z,509.00
2023-05-11T00:56:03.473Z,511.00
2023-05-11T00:57:03.520Z,508.00
2023-05-11T00:58:03.549Z,508.00
2023-05-11T00:59:03.577Z,503.00
2023-05-11T01:00:03.671Z,508.00
2023-05-11T01:01:03.751Z,507.00
2023-05-11T01:02:03.728Z,507.00
2023-05-11T01:03:03.738Z,507.00
2023-05-11T01:04:03.730Z,506.00
2023-05-11T01:05:03.738Z,504.00
2023-05-11T01:06:03.791Z,509.00
2023-05-11T01:07:03.798Z,506.00
2023-05-11T01:08:03.869Z,507.00
2023-05-11T01:09:03.873Z,506.00
2023-05-11T01:10:03.881Z,508.00
2023-05-11T01:11:03.968Z,510.00
2023-05-11T01:12:03.963Z,505.00
2023-05-11T01:13:04.057Z,506.00
2023-05-11T01:14:04.096Z,501.00
2023-05-11T01:15:04.088Z,509.00
2023-05-11T01:16:04.209Z,508.00
2023-05-11T01:17:04.232Z,507.00
2023-05-11T01:18:04.247Z,500.00
2023-05-11T01:19:04.375Z,503.00
2023-05-11T01:20:04.288Z,508.00
2023-05-11T01:21:04.338Z,508.00
2023-05-11T01:22:04.341Z,504.00
2023-05-11T01:23:04.395Z,500.00
2023-05-11T01:24:04.429Z,511.00
2023-05-11T01:25:04.471Z,507.00
2023-05-11T01:26:04.513Z,508.00
2023-05-11T01:27:04.551Z,508.00
2023-05-11T01:28:04.623Z,507.00
2023-05-11T01:29:04.664Z,510.00
2023-05-11T01:30:04.676Z,505.00
2023-05-11T01:31:04.726Z,512.00
2023-05-11T01:32:04.875Z,506.00
2023-05-11T01:33:04.852Z,504.00
2023-05-11T01:34:04.848Z,506.00
2023-05-11T01:35:05.085Z,506.00
2023-05-11T01:36:04.932Z,509.00
2023-05-11T01:37:04.944Z,507.00
2023-05-11T01:38:04.978Z,507.00
2023-05-11T01:39:05.019Z,510.00
2023-05-11T01:40:05.048Z,508.00
2023-05-11T01:41:05.088Z,510.00
2023-05-11T01:42:05.130Z,507.00
2023-05-11T01:43:05.237Z,511.00
2023-05-11T01:44:05.224Z,508.00
2023-05-11T01:45:05.614Z,513.00
2023-05-11T01:46:05.334Z,507.00
2023-05-11T01:47:05.342Z,509.00
2023-05-11T01:48:05.455Z,506.00
2023-05-11T01:49:05.419Z,511.00
2023-05-11T01:50:05.611Z,509.00
2023-05-11T01:51:05.528Z,507.00
2023-05-11T01:52:05.555Z,510.00
2023-05-11T01:53:05.587Z,503.00
2023-05-11T01:54:05.632Z,506.00
2023-05-11T01:55:06.081Z,511.00
2023-05-11T01:56:05.707Z,511.00
2023-05-11T01:57:05.776Z,510.00
2023-05-11T01:58:05.787Z,510.00
2023-05-11T01:59:05.852Z,509.00
2023-05-11T02:00:05.876Z,508.00
2023-05-11T02:01:05.934Z,507.00
2023-05-11T02:02:05.929Z,509.00
2023-05-11T02:03:06.096Z,505.00
2023-05-11T02:04:06.045Z,508.00
2023-05-11T02:05:06.113Z,507.00
2023-05-11T02:06:06.124Z,509.00
2023-05-11T02:07:06.154Z,512.00
2023-05-11T02:08:06.216Z,506.00
2023-05-11T02:09:06.257Z,509.00
2023-05-11T02:10:06.324Z,504.00
2023-05-11T02:11:06.358Z,508.00
2023-05-11T02:12:06.384Z,507.00
2023-05-11T02:13:06.492Z,506.00
2023-05-11T02:14:06.483Z,509.00
2023-05-11T02:15:06.504Z,500.00
2023-05-11T02:16:06.613Z,505.00
2023-05-11T02:17:06.623Z,505.00
2023-05-11T02:18:06.709Z,507.00
2023-05-11T02:19:06.776Z,506.00
2023-05-11T02:20:06.794Z,509.00
2023-05-11T02:21:06.776Z,511.00
2023-05-11T02:22:06.849Z,508.00
2023-05-11T02:23:06.886Z,510.00
2023-05-11T02:24:06.939Z,503.00
2023-05-11T02:25:06.978Z,508.00
2023-05-11T02:26:07.028Z,509.00
2023-05-11T02:27:07.068Z,507.00
2023-05-11T02:28:07.159Z,509.00
2023-05-11T02:29:07.131Z,505.00
2023-05-11T02:30:07.664Z,507.00
2023-05-11T02:31:07.234Z,505.00
2023-05-11T02:32:07.267Z,506.00
2023-05-11T02:33:07.378Z,507.00
2023-05-11T02:34:07.400Z,510.00
2023-05-11T02:35:07.598Z,511.00
2023-05-11T02:36:07.475Z,506.00
2023-05-11T02:37:07.543Z,504.00
2023-05-11T02:38:07.504Z,506.00
2023-05-11T02:39:07.551Z,510.00
2023-05-11T02:40:07.638Z,509.00
2023-05-11T02:41:07.713Z,509.00
2023-05-11T02:42:07.706Z,509.00
2023-05-11T02:43:07.752Z,508.00
2023-05-11T02:44:07.821Z,506.00
2023-05-11T02:45:07.862Z,508.00
2023-05-11T02:46:07.870Z,504.00
2023-05-11T02:47:08.000Z,507.00
2023-05-11T02:48:08.001Z,509.00
2023-05-11T02:49:08.050Z,509.00
2023-05-11T02:50:08.079Z,502.00
2023-05-11T02:51:08.087Z,503.00
2023-05-11T02:52:08.132Z,505.00
2023-05-11T02:53:08.227Z,502.00
2023-05-11T02:54:08.208Z,506.00
2023-05-11T02:55:08.264Z,502.00
2023-05-11T02:56:08.328Z,508.00
2023-05-11T02:57:08.358Z,504.00
2023-05-11T02:58:08.511Z,505.00
2023-05-11T02:59:08.471Z,509.00
2023-05-11T03:00:08.527Z,506.00
2023-05-11T03:01:08.646Z,503.00
2023-05-11T03:02:08.705Z,507.00
2023-05-11T03:03:08.711Z,512.00
2023-05-11T03:04:08.708Z,505.00
2023-05-11T03:05:08.738Z,501.00
2023-05-11T03:06:08.778Z,505.00
2023-05-11T03:07:08.822Z,505.00
2023-05-11T03:08:08.852Z,508.00
2023-05-11T03:09:10.267Z,504.00
2023-05-11T03:10:08.986Z,511.00
2023-05-11T03:11:09.012Z,507.00
2023-05-11T03:12:09.041Z,505.00
2023-05-11T03:13:09.083Z,506.00
2023-05-11T03:14:09.171Z,509.00
2023-05-11T03:15:09.204Z,507.00
2023-05-11T03:16:09.343Z,507.00
2023-05-11T03:17:09.362Z,508.00
2023-05-11T03:18:09.353Z,508.00
2023-05-11T03:19:09.397Z,503.00
2023-05-11T03:20:09.616Z,511.00
2023-05-11T03:21:09.500Z,506.00
2023-05-11T03:22:09.495Z,504.00
2023-05-11T03:23:09.602Z,502.00
2023-05-11T03:24:09.608Z,506.00
2023-05-11T03:25:09.673Z,506.00
2023-05-11T03:26:09.699Z,502.00
2023-05-11T03:27:09.741Z,509.00
2023-05-11T03:28:09.793Z,502.00
2023-05-11T03:29:09.863Z,507.00
2023-05-11T03:30:09.936Z,505.00
2023-05-11T03:31:10.010Z,503.00
2023-05-11T03:32:10.088Z,507.00
2023-05-11T03:33:10.098Z,507.00
2023-05-11T03:34:10.097Z,506.00
2023-05-11T03:35:10.158Z,510.00
2023-05-11T03:36:10.221Z,509.00
2023-05-11T03:37:10.260Z,510.00
2023-05-11T03:38:10.295Z,506.00
2023-05-11T03:39:10.313Z,512.00
2023-05-11T03:40:10.413Z,508.00
2023-05-11T03:41:10.453Z,510.00
2023-05-11T03:42:10.493Z,505.00
2023-05-11T03:43:10.536Z,507.00
2023-05-11T03:44:10.563Z,509.00
2023-05-11T03:45:11.135Z,506.00
2023-05-11T03:46:10.798Z,506.00
2023-05-11T03:47:10.739Z,509.00
2023-05-11T03:48:10.781Z,508.00
2023-05-11T03:49:13.400Z,508.00
2023-05-11T03:50:10.877Z,514.00
2023-05-11T03:51:10.791Z,509.00
2023-05-11T03:52:10.805Z,506.00
2023-05-11T03:53:10.792Z,506.00
2023-05-11T03:54:10.784Z,509.00
2023-05-11T03:55:10.797Z,505.00
2023-05-11T03:56:10.751Z,506.00
2023-05-11T03:57:10.805Z,507.00
2023-05-11T03:58:10.768Z,508.00
2023-05-11T03:59:10.754Z,513.00
2023-05-11T04:00:11.128Z,508.00
2023-05-11T04:01:10.751Z,507.00
2023-05-11T04:02:10.797Z,502.00
2023-05-11T04:03:10.788Z,504.00
2023-05-11T04:04:10.790Z,508.00
2023-05-11T04:05:11.163Z,507.00
2023-05-11T04:06:10.681Z,502.00
2023-05-11T04:07:10.706Z,507.00
2023-05-11T04:08:10.681Z,506.00
2023-05-11T04:09:10.681Z,507.00
2023-05-11T04:10:10.688Z,507.00
2023-05-11T04:11:10.645Z,504.00
2023-05-11T04:12:10.653Z,507.00
2023-05-11T04:13:10.653Z,505.00
2023-05-11T04:14:10.628Z,504.00
2023-05-11T04:15:10.661Z,505.00
2023-05-11T04:16:10.661Z,503.00
2023-05-11T04:17:10.624Z,504.00
2023-05-11T04:18:10.673Z,504.00
2023-05-11T04:19:10.639Z,501.00
2023-05-11T04:20:10.614Z,506.00
2023-05-11T04:21:10.600Z,502.00
2023-05-11T04:22:10.623Z,508.00
2023-05-11T04:23:10.631Z,506.00
2023-05-11T04:24:10.568Z,506.00
2023-05-11T04:25:10.617Z,506.00
2023-05-11T04:26:10.537Z,506.00
2023-05-11T04:27:10.608Z,507.00
2023-05-11T04:28:10.556Z,505.00
2023-05-11T04:29:10.703Z,509.00
2023-05-11T04:30:11.155Z,509.00
2023-05-11T04:31:10.735Z,506.00
2023-05-11T04:32:10.688Z,505.00
2023-05-11T04:33:10.733Z,506.00
2023-05-11T04:34:10.808Z,506.00
2023-05-11T04:35:11.162Z,507.00
2023-05-11T04:36:10.909Z,507.00
2023-05-11T04:37:10.968Z,502.00
2023-05-11T04:38:11.040Z,503.00
2023-05-11T04:39:11.071Z,504.00
2023-05-11T04:40:11.624Z,508.00
2023-05-11T04:41:11.210Z,504.00
2023-05-11T04:42:11.269Z,507.00
2023-05-11T04:43:11.312Z,503.00
2023-05-11T04:44:11.380Z,501.00
2023-05-11T04:45:11.642Z,503.00
2023-05-11T04:46:11.511Z,508.00
2023-05-11T04:47:11.559Z,500.00
2023-05-11T04:48:11.715Z,508.00
2023-05-11T04:49:11.674Z,505.00
2023-05-11T04:50:11.742Z,501.00
2023-05-11T04:51:11.807Z,503.00
2023-05-11T04:52:11.856Z,505.00
2023-05-11T04:53:11.908Z,500.00
2023-05-11T04:54:11.974Z,499.00
2023-05-11T04:55:12.035Z,504.00
2023-05-11T04:56:12.086Z,500.00
2023-05-11T04:57:12.108Z,507.00
2023-05-11T04:58:12.174Z,504.00
2023-05-11T04:59:12.285Z,502.00
2023-05-11T05:00:12.735Z,503.00
2023-05-11T05:01:12.404Z,500.00
2023-05-11T05:02:12.403Z,500.00
2023-05-11T05:03:12.428Z,500.00
2023-05-11T05:04:12.630Z,507.00
2023-05-11T05:05:12.564Z,521.00
2023-05-11T05:06:12.577Z,510.00
2023-05-11T05:07:12.608Z,512.00
2023-05-11T05:08:12.670Z,520.00
2023-05-11T05:09:12.723Z,513.00
2023-05-11T05:10:12.777Z,509.00
2023-05-11T05:11:12.831Z,507.00
2023-05-11T05:12:12.876Z,500.00
2023-05-11T05:13:12.907Z,500.00
2023-05-11T05:14:12.927Z,520.00
2023-05-11T05:15:12.997Z,512.00
2023-05-11T05:16:13.151Z,529.00
2023-05-11T05:17:13.726Z,524.00
2023-05-11T05:18:13.194Z,536.00
2023-05-11T05:19:13.158Z,523.00
2023-05-11T05:20:13.647Z,531.00
2023-05-11T05:21:13.238Z,546.00
2023-05-11T05:22:13.318Z,552.00
2023-05-11T05:23:13.364Z,549.00
2023-05-11T05:24:13.411Z,554.00
2023-05-11T05:25:13.422Z,556.00
2023-05-11T05:26:13.532Z,554.00
2023-05-11T05:27:13.569Z,556.00
2023-05-11T05:28:13.622Z,555.00
2023-05-11T05:29:13.629Z,554.00
2023-05-11T05:30:13.688Z,547.00
2023-05-11T05:31:13.784Z,543.00
2023-05-11T05:32:13.787Z,551.00
2023-05-11T05:33:13.910Z,557.00
2023-05-11T05:34:16.173Z,544.00
2023-05-11T05:35:14.164Z,546.00
2023-05-11T05:36:14.122Z,551.00
2023-05-11T05:37:14.184Z,548.00
2023-05-11T05:38:14.272Z,546.00
2023-05-11T05:39:14.259Z,553.00
2023-05-11T05:40:14.671Z,552.00
2023-05-11T05:41:14.738Z,549.00
2023-05-11T05:42:14.477Z,541.00
2023-05-11T05:43:14.460Z,551.00
2023-05-11T05:44:14.646Z,547.00
2023-05-11T05:45:14.952Z,549.00
2023-05-11T05:46:14.592Z,529.00
2023-05-11T05:47:14.640Z,509.00
2023-05-11T05:48:14.674Z,502.00
2023-05-11T05:49:14.737Z,538.00
2023-05-11T05:50:15.291Z,539.00
2023-05-11T05:51:14.815Z,541.00
2023-05-11T05:52:14.849Z,530.00
2023-05-11T05:53:14.912Z,558.00
2023-05-11T05:54:15.001Z,558.00
2023-05-11T05:55:15.138Z,553.00
2023-05-11T05:56:15.012Z,575.00
2023-05-11T05:57:15.873Z,580.00
2023-05-11T05:58:15.145Z,602.00
2023-05-11T05:59:15.179Z,563.00
2023-05-11T06:00:15.777Z,603.00
2023-05-11T06:01:15.290Z,570.00
2023-05-11T06:02:15.366Z,601.00
2023-05-11T06:03:15.506Z,603.00
2023-05-11T06:04:15.593Z,622.00
2023-05-11T06:05:15.671Z,622.00
2023-05-11T06:06:15.591Z,597.00
2023-05-11T06:07:15.622Z,585.00
2023-05-11T06:08:15.677Z,593.00
2023-05-11T06:09:15.729Z,587.00
2023-05-11T06:10:16.223Z,588.00
2023-05-11T06:11:15.827Z,603.00
2023-05-11T06:12:15.867Z,605.00
2023-05-11T06:13:15.861Z,608.00
2023-05-11T06:14:15.885Z,597.00
2023-05-11T06:15:16.171Z,588.00
2023-05-11T06:16:16.018Z,599.00
2023-05-11T06:17:16.003Z,592.00
2023-05-11T06:18:16.036Z,593.00
2023-05-11T06:19:16.016Z,594.00
2023-05-11T06:20:16.408Z,599.00
2023-05-11T06:21:16.096Z,607.00
2023-05-11T06:22:16.092Z,596.00
2023-05-11T06:23:16.150Z,599.00
2023-05-11T06:24:16.155Z,614.00
2023-05-11T06:25:16.142Z,619.00
2023-05-11T06:26:16.175Z,604.00
2023-05-11T06:27:18.237Z,615.00
2023-05-11T06:28:16.196Z,602.00
2023-05-11T06:29:16.200Z,603.00
2023-05-11T06:30:16.429Z,601.00
2023-05-11T06:31:16.267Z,599.00
2023-05-11T06:32:16.230Z,612.00
2023-05-11T06:33:16.230Z,608.00
2023-05-11T06:34:16.222Z,613.00
2023-05-11T06:35:16.217Z,605.00
2023-05-11T06:36:16.683Z,604.00
2023-05-11T06:37:16.228Z,604.00
2023-05-11T06:38:16.196Z,607.00
2023-05-11T06:39:16.204Z,616.00
2023-05-11T06:40:16.546Z,621.00
2023-05-11T06:41:16.176Z,610.00
2023-05-11T06:42:16.196Z,596.00
2023-05-11T06:43:16.227Z,594.00
2023-05-11T06:44:16.186Z,613.00
2023-05-11T06:45:16.227Z,602.00
2023-05-11T06:46:16.742Z,598.00
2023-05-11T06:47:16.264Z,602.00
2023-05-11T06:48:16.319Z,612.00
2023-05-11T06:49:16.335Z,608.00
2023-05-11T06:50:16.581Z,620.00
2023-05-11T06:51:16.440Z,600.00
2023-05-11T06:52:16.438Z,621.00
2023-05-11T06:53:16.505Z,586.00
2023-05-11T06:54:16.546Z,588.00
2023-05-11T06:55:16.568Z,600.00
2023-05-11T06:56:16.623Z,593.00
2023-05-11T06:57:16.662Z,592.00
2023-05-11T06:58:16.700Z,594.00
2023-05-11T06:59:16.810Z,601.00
2023-05-11T07:00:17.003Z,604.00
2023-05-11T07:01:16.904Z,613.00
2023-05-11T07:02:16.970Z,607.00
2023-05-11T07:03:17.172Z,622.00
2023-05-11T07:04:17.145Z,652.00
2023-05-11T07:05:17.168Z,645.00
2023-05-11T07:06:17.671Z,659.00
2023-05-11T07:07:17.245Z,650.00
2023-05-11T07:08:17.325Z,643.00
2023-05-11T07:09:17.346Z,644.00
2023-05-11T07:10:17.571Z,672.00
2023-05-11T07:11:17.676Z,672.00
2023-05-11T07:12:17.491Z,663.00
2023-05-11T07:13:17.565Z,654.00
2023-05-11T07:14:17.615Z,645.00
2023-05-11T07:15:17.678Z,628.00
2023-05-11T07:16:18.233Z,637.00
2023-05-11T07:17:17.789Z,659.00
2023-05-11T07:18:17.816Z,660.00
2023-05-11T07:19:17.825Z,653.00
2023-05-11T07:20:18.245Z,638.00
2023-05-11T07:21:18.193Z,640.00
2023-05-11T07:22:18.002Z,663.00
2023-05-11T07:23:18.040Z,682.00
2023-05-11T07:24:18.103Z,699.00
2023-05-11T07:25:18.149Z,719.00
2023-05-11T07:26:18.698Z,721.00
2023-05-11T07:27:18.242Z,728.00
2023-05-11T07:28:18.277Z,702.00
2023-05-11T07:29:18.359Z,688.00
2023-05-11T07:30:18.920Z,631.00
2023-05-11T07:31:18.691Z,664.00
2023-05-11T07:32:18.503Z,679.00
2023-05-11T07:33:18.506Z,656.00
2023-05-11T07:34:18.587Z,654.00
2023-05-11T07:35:18.600Z,653.00
2023-05-11T07:36:18.704Z,647.00
2023-05-11T07:37:18.657Z,659.00
2023-05-11T07:38:18.683Z,669.00
2023-05-11T07:39:18.721Z,662.00
2023-05-11T07:40:18.996Z,669.00
2023-05-11T07:41:19.177Z,705.00
2023-05-11T07:42:18.847Z,689.00
2023-05-11T07:43:18.915Z,663.00
2023-05-11T07:44:18.967Z,671.00
2023-05-11T07:45:18.987Z,696.00
2023-05-11T07:46:19.272Z,658.00
2023-05-11T07:47:19.138Z,608.00
2023-05-11T07:48:19.120Z,619.00
2023-05-11T07:49:25.439Z,649.00
2023-05-11T07:50:23.917Z,601.00
2023-05-11T07:51:19.205Z,630.00
2023-05-11T07:52:19.165Z,610.00
2023-05-11T07:53:19.166Z,639.00
2023-05-11T07:54:21.014Z,644.00
2023-05-11T07:55:19.590Z,635.00
2023-05-11T07:56:19.820Z,653.00
2023-05-11T07:57:19.475Z,652.00
2023-05-11T07:58:19.511Z,650.00
2023-05-11T07:59:19.579Z,630.00
2023-05-11T08:00:19.768Z,641.00
2023-05-11T08:01:19.692Z,661.00
2023-05-11T08:02:19.735Z,671.00
2023-05-11T08:03:19.745Z,649.00
2023-05-11T08:04:19.766Z,646.00
2023-05-11T08:05:20.034Z,652.00
2023-05-11T08:06:19.884Z,636.00
2023-05-11T08:07:19.896Z,660.00
2023-05-11T08:08:19.943Z,671.00
2023-05-11T08:09:19.988Z,652.00
2023-05-11T08:10:20.007Z,659.00
2023-05-11T08:11:20.065Z,660.00
2023-05-11T08:12:20.111Z,662.00
2023-05-11T08:13:20.221Z,654.00
2023-05-11T08:14:20.245Z,646.00
2023-05-11T08:15:20.350Z,661.00
2023-05-11T08:16:20.777Z,686.00
2023-05-11T08:17:20.358Z,656.00
2023-05-11T08:18:20.431Z,662.00
2023-05-11T08:19:20.465Z,665.00
2023-05-11T08:20:20.493Z,645.00
2023-05-11T08:21:20.704Z,649.00
2023-05-11T08:22:20.553Z,644.00
2023-05-11T08:23:20.596Z,634.00
2023-05-11T08:24:20.644Z,640.00
2023-05-11T08:25:20.800Z,639.00
2023-05-11T08:26:20.765Z,718.00
2023-05-11T08:27:20.802Z,689.00
2023-05-11T08:28:20.819Z,650.00
2023-05-11T08:29:20.844Z,650.00
2023-05-11T08:30:20.905Z,643.00
2023-05-11T08:31:20.973Z,644.00
2023-05-11T08:32:20.956Z,641.00
2023-05-11T08:33:36.415Z,632.00
2023-05-11T08:34:22.032Z,632.00
2023-05-11T08:35:21.327Z,622.00
2023-05-11T08:36:21.194Z,631.00
2023-05-11T08:37:20.965Z,643.00
2023-05-11T08:38:20.978Z,650.00
2023-05-11T08:39:43.269Z,643.00
2023-05-11T08:40:22.231Z,604.00
2023-05-11T08:41:21.193Z,590.00
2023-05-11T08:42:21.245Z,612.00
2023-05-11T08:43:21.287Z,619.00
2023-05-11T08:44:21.342Z,621.00
2023-05-11T08:45:21.383Z,610.00
2023-05-11T08:46:21.388Z,612.00
2023-05-11T08:47:23.617Z,617.00
2023-05-11T08:48:21.457Z,617.00
2023-05-11T08:49:21.492Z,605.00
2023-05-11T08:50:21.527Z,629.00
2023-05-11T08:51:21.658Z,651.00
2023-05-11T08:52:21.633Z,630.00
2023-05-11T08:53:21.626Z,620.00
2023-05-11T08:54:21.679Z,650.00
2023-05-11T08:55:21.677Z,647.00
2023-05-11T08:56:21.710Z,752.00
2023-05-11T08:57:21.728Z,806.00
2023-05-11T08:58:21.794Z,751.00
2023-05-11T08:59:21.809Z,797.00
2023-05-11T09:00:21.811Z,808.00
2023-05-11T09:01:22.266Z,786.00
2023-05-11T09:02:22.739Z,780.00
2023-05-11T09:03:21.887Z,797.00
2023-05-11T09:04:21.943Z,807.00
2023-05-11T09:05:22.198Z,778.00
2023-05-11T09:06:22.266Z,751.00
2023-05-11T09:07:22.036Z,740.00
2023-05-11T09:08:22.060Z,721.00
2023-05-11T09:09:22.105Z,784.00
2023-05-11T09:10:22.121Z,750.00
2023-05-11T09:11:22.247Z,742.00
2023-05-11T09:12:22.238Z,665.00
2023-05-11T09:13:22.246Z,659.00
2023-05-11T09:14:26.932Z,660.00
2023-05-11T09:15:23.264Z,662.00
2023-05-11T09:16:36.126Z,662.00
2023-05-11T09:17:23.267Z,661.00
2023-05-11T09:18:22.308Z,663.00
2023-05-11T09:19:22.296Z,678.00
2023-05-11T09:20:22.307Z,695.00
2023-05-11T09:21:22.758Z,675.00
2023-05-11T09:22:22.350Z,700.00
2023-05-11T09:23:22.363Z,740.00
2023-05-11T09:24:22.364Z,676.00
2023-05-11T09:25:22.425Z,673.00
2023-05-11T09:26:22.708Z,664.00
2023-05-11T09:27:22.467Z,696.00
2023-05-11T09:28:25.440Z,676.00
2023-05-11T09:29:22.461Z,710.00
2023-05-11T09:30:23.442Z,679.00
2023-05-11T09:31:22.517Z,681.00
2023-05-11T09:32:22.835Z,685.00
2023-05-11T09:33:22.445Z,709.00
2023-05-11T09:34:22.531Z,693.00
2023-05-11T09:35:22.558Z,662.00
2023-05-11T09:36:22.389Z,674.00
2023-05-11T09:37:22.733Z,673.00
2023-05-11T09:38:22.405Z,648.00
2023-05-11T09:39:35.126Z,650.00
2023-05-11T09:40:27.344Z,651.00
2023-05-11T09:41:22.382Z,651.00
2023-05-11T09:42:22.783Z,651.00
2023-05-11T09:43:22.367Z,629.00
2023-05-11T09:44:22.364Z,653.00
2023-05-11T09:45:22.373Z,696.00
2023-05-11T09:46:22.347Z,666.00
2023-05-11T09:47:22.820Z,629.00
2023-05-11T09:48:22.396Z,593.00
2023-05-11T09:49:23.241Z,567.00
2023-05-11T09:50:26.465Z,588.00
2023-05-11T09:51:22.358Z,588.00
2023-05-11T09:52:22.746Z,592.00
2023-05-11T09:53:22.723Z,600.00
2023-05-11T09:54:22.368Z,605.00
2023-05-11T09:55:22.329Z,597.00
2023-05-11T09:56:22.368Z,608.00
2023-05-11T09:57:22.785Z,620.00
2023-05-11T09:58:22.308Z,646.00
2023-05-11T09:59:22.319Z,636.00
2023-05-11T10:00:22.344Z,630.00
2023-05-11T10:01:22.381Z,628.00
2023-05-11T10:02:22.797Z,628.00
2023-05-11T10:03:22.321Z,615.00
2023-05-11T10:04:24.019Z,608.00
2023-05-11T10:05:22.308Z,633.00
2023-05-11T10:06:22.317Z,629.00
2023-05-11T10:07:22.747Z,605.00
2023-05-11T10:08:22.256Z,615.00
2023-05-11T10:09:22.253Z,632.00
2023-05-11T10:10:22.255Z,629.00
2023-05-11T10:11:24.086Z,621.00
2023-05-11T10:12:22.737Z,626.00
2023-05-11T10:13:22.227Z,642.00
2023-05-11T10:14:22.285Z,624.00
2023-05-11T10:15:22.210Z,630.00
2023-05-11T10:16:22.283Z,643.00
2023-05-11T10:17:22.251Z,635.00
2023-05-11T10:18:22.250Z,629.00
2023-05-11T10:19:22.162Z,641.00
2023-05-11T10:20:22.259Z,662.00
2023-05-11T10:21:22.150Z,678.00
2023-05-11T10:22:22.259Z,708.00
2023-05-11T10:23:22.205Z,670.00
2023-05-11T10:24:22.220Z,642.00
2023-05-11T10:25:22.156Z,632.00
2023-05-11T10:26:22.162Z,633.00
2023-05-11T10:27:22.244Z,692.00
2023-05-11T10:28:22.135Z,663.00
2023-05-11T10:29:22.102Z,640.00
2023-05-11T10:30:22.253Z,636.00
2023-05-11T10:31:22.155Z,647.00
2023-05-11T10:32:22.314Z,661.00
2023-05-11T10:33:22.096Z,702.00
2023-05-11T10:34:22.074Z,647.00
2023-05-11T10:35:22.079Z,658.00
2023-05-11T10:36:22.088Z,649.00
2023-05-11T10:37:22.292Z,627.00
2023-05-11T10:38:22.684Z,614.00
2023-05-11T10:39:22.033Z,581.00
2023-05-11T10:40:22.050Z,563.00
2023-05-11T10:41:22.075Z,600.00
2023-05-11T10:42:22.233Z,640.00
2023-05-11T10:43:21.999Z,665.00
2023-05-11T10:44:22.025Z,674.00
2023-05-11T10:45:22.076Z,674.00
2023-05-11T10:46:22.061Z,705.00
2023-05-11T10:47:22.318Z,734.00
2023-05-11T10:48:21.999Z,740.00
2023-05-11T10:49:22.005Z,749.00
2023-05-11T10:50:22.054Z,739.00
2023-05-11T10:51:22.017Z,728.00
2023-05-11T10:52:22.000Z,696.00
2023-05-11T10:53:21.986Z,701.00
2023-05-11T10:54:22.020Z,708.00
2023-05-11T10:55:21.946Z,684.00
2023-05-11T10:56:21.956Z,680.00
2023-05-11T10:57:22.260Z,665.00
2023-05-11T10:58:21.937Z,665.00
2023-05-11T10:59:21.916Z,660.00
2023-05-11T11:00:22.144Z,655.00
2023-05-11T11:01:21.955Z,651.00
2023-05-11T11:02:21.930Z,644.00
2023-05-11T11:03:21.914Z,646.00
2023-05-11T11:04:21.909Z,640.00
2023-05-11T11:05:22.089Z,633.00
2023-05-11T11:06:21.894Z,633.00
2023-05-11T11:07:22.265Z,633.00
2023-05-11T11:08:21.873Z,621.00
2023-05-11T11:09:21.882Z,623.00
2023-05-11T11:10:21.878Z,617.00
2023-05-11T11:11:21.868Z,618.00
2023-05-11T11:12:22.280Z,610.00
2023-05-11T11:13:21.839Z,614.00
2023-05-11T11:14:21.843Z,606.00
2023-05-11T11:15:21.817Z,597.00
2023-05-11T11:16:21.932Z,600.00
2023-05-11T11:17:22.239Z,600.00
2023-05-11T11:18:21.876Z,599.00
2023-05-11T11:19:21.810Z,597.00
2023-05-11T11:20:21.795Z,591.00
2023-05-11T11:21:21.809Z,590.00
2023-05-11T11:22:21.792Z,586.00
2023-05-11T11:23:21.764Z,585.00
2023-05-11T11:24:21.934Z,586.00
2023-05-11T11:25:21.888Z,574.00
2023-05-11T11:26:21.982Z,575.00
2023-05-11T11:27:22.734Z,579.00
2023-05-11T11:28:22.077Z,576.00
2023-05-11T11:29:22.158Z,571.00
2023-05-11T11:30:22.211Z,571.00
2023-05-11T11:31:22.310Z,574.00
2023-05-11T11:32:22.378Z,570.00
2023-05-11T11:33:22.398Z,577.00
2023-05-11T11:34:22.473Z,570.00
2023-05-11T11:35:22.521Z,564.00
2023-05-11T11:36:22.573Z,569.00
2023-05-11T11:37:22.790Z,568.00
2023-05-11T11:38:22.849Z,568.00
2023-05-11T11:39:22.731Z,572.00
2023-05-11T11:40:22.845Z,565.00
2023-05-11T11:41:22.889Z,568.00
2023-05-11T11:42:23.267Z,569.00
2023-05-11T11:43:22.988Z,566.00
2023-05-11T11:44:23.037Z,565.00
2023-05-11T11:45:23.125Z,563.00
2023-05-11T11:46:23.170Z,567.00
2023-05-11T11:47:23.258Z,567.00
2023-05-11T11:48:23.256Z,566.00
2023-05-11T11:49:23.262Z,563.00
2023-05-11T11:50:23.300Z,564.00
2023-05-11T11:51:23.339Z,567.00
2023-05-11T11:52:23.758Z,565.00
2023-05-11T11:53:23.313Z,552.00
2023-05-11T11:54:23.336Z,560.00
2023-05-11T11:55:23.335Z,557.00
2023-05-11T11:56:23.326Z,556.00
2023-05-11T11:57:23.339Z,560.00
2023-05-11T11:58:23.371Z,562.00
2023-05-11T11:59:23.398Z,564.00
2023-05-11T12:00:23.370Z,559.00
2023-05-11T12:01:23.348Z,560.00
2023-05-11T12:02:23.441Z,556.00
2023-05-11T12:03:23.449Z,558.00
2023-05-11T12:04:23.630Z,560.00
2023-05-11T12:05:23.965Z,560.00
2023-05-11T12:06:25.852Z,555.00
2023-05-11T12:07:23.427Z,558.00
2023-05-11T12:08:23.386Z,558.00
2023-05-11T12:09:23.436Z,550.00
2023-05-11T12:10:23.381Z,554.00
2023-05-11T12:11:23.401Z,559.00
2023-05-11T12:12:23.381Z,559.00
2023-05-11T12:13:23.328Z,555.00
2023-05-11T12:14:23.325Z,548.00
2023-05-11T12:15:23.319Z,561.00
2023-05-11T12:16:23.391Z,558.00
2023-05-11T12:17:23.404Z,553.00
2023-05-11T12:18:23.427Z,558.00
2023-05-11T12:19:23.337Z,555.00
2023-05-11T12:20:23.323Z,564.00
2023-05-11T12:21:23.276Z,555.00
2023-05-11T12:22:23.808Z,548.00
2023-05-11T12:23:23.297Z,559.00
2023-05-11T12:24:23.257Z,555.00
2023-05-11T12:25:23.548Z,556.00
2023-05-11T12:26:23.247Z,555.00
2023-05-11T12:27:23.279Z,554.00
2023-05-11T12:28:23.245Z,550.00